sensor_id;sensor_type;location;lat;lon;timestamp;pressure;altitude;pressure_sealevel;temperature;humidity
8699;BME280;4386;51.236;6.742;2023-02-28T00:00:23;102576.44;;;2.89;64.34
8699;BME280;4386;51.236;6.742;2023-02-28T00:01:25;102566.03;;;2.86;64.33
8699;BME280;4386;51.236;6.742;2023-02-28T00:02:46;102575.63;;;2.87;64.10
8699;BME280;4386;51.236;6.742;2023-02-28T00:03:48;102565.16;;;2.85;64.27
8699;BME280;4386;51.236;6.742;2023-02-28T00:04:51;102566.91;;;2.85;64.69
8699;BME280;4386;51.236;6.742;2023-02-28T00:05:54;102566.91;;;2.85;64.90
8699;BME280;4386;51.236;6.742;2023-02-28T00:06:56;102563.41;;;2.86;64.42
8699;BME280;4386;51.236;6.742;2023-02-28T00:07:58;102565.19;;;2.84;64.64
8699;BME280;4386;51.236;6.742;2023-02-28T00:09:01;102560.84;;;2.84;64.48
8699;BME280;4386;51.236;6.742;2023-02-28T00:10:05;102562.59;;;2.84;64.43
8699;BME280;4386;51.236;6.742;2023-02-28T00:11:09;102561.72;;;2.83;64.55
8699;BME280;4386;51.236;6.742;2023-02-28T00:12:12;102555.63;;;2.83;64.57
8699;BME280;4386;51.236;6.742;2023-02-28T00:13:13;102562.59;;;2.82;64.86
8699;BME280;4386;51.236;6.742;2023-02-28T00:14:16;102569.56;;;2.82;64.64
8699;BME280;4386;51.236;6.742;2023-02-28T00:15:18;102561.72;;;2.82;64.73
8699;BME280;4386;51.236;6.742;2023-02-28T00:16:22;102560.88;;;2.81;64.66
8699;BME280;4386;51.236;6.742;2023-02-28T00:17:24;102560.03;;;2.81;64.98
8699;BME280;4386;51.236;6.742;2023-02-28T00:18:27;102565.25;;;2.81;64.70
8699;BME280;4386;51.236;6.742;2023-02-28T00:19:31;102557.41;;;2.79;64.58
8699;BME280;4386;51.236;6.742;2023-02-28T00:20:34;102567.00;;;2.79;64.85
8699;BME280;4386;51.236;6.742;2023-02-28T00:21:35;102569.66;;;2.77;64.85
8699;BME280;4386;51.236;6.742;2023-02-28T00:22:39;102564.44;;;2.76;65.16
8699;BME280;4386;51.236;6.742;2023-02-28T00:23:41;102566.19;;;2.75;65.04
8699;BME280;4386;51.236;6.742;2023-02-28T00:24:45;102570.59;;;2.75;64.94
8699;BME280;4386;51.236;6.742;2023-02-28T00:25:47;102567.09;;;2.74;65.19
8699;BME280;4386;51.236;6.742;2023-02-28T00:26:50;102571.44;;;2.75;65.04
8699;BME280;4386;51.236;6.742;2023-02-28T00:27:52;102570.59;;;2.75;64.95
8699;BME280;4386;51.236;6.742;2023-02-28T00:28:54;102566.19;;;2.75;64.97
8699;BME280;4386;51.236;6.742;2023-02-28T00:29:56;102565.31;;;2.76;65.30
8699;BME280;4386;51.236;6.742;2023-02-28T00:30:58;102567.97;;;2.75;65.59
8699;BME280;4386;51.236;6.742;2023-02-28T00:32:03;102560.13;;;2.75;65.06
8699;BME280;4386;51.236;6.742;2023-02-28T00:33:06;102563.56;;;2.75;65.52
8699;BME280;4386;51.236;6.742;2023-02-28T00:34:08;102560.94;;;2.77;65.35
8699;BME280;4386;51.236;6.742;2023-02-28T00:35:11;102564.44;;;2.76;65.06
8699;BME280;4386;51.236;6.742;2023-02-28T00:36:13;102565.31;;;2.78;65.20
8699;BME280;4386;51.236;6.742;2023-02-28T00:37:16;102559.16;;;2.79;65.18
8699;BME280;4386;51.236;6.742;2023-02-28T00:38:17;102558.28;;;2.80;65.15
8699;BME280;4386;51.236;6.742;2023-02-28T00:39:21;102562.59;;;2.82;65.02
8699;BME280;4386;51.236;6.742;2023-02-28T00:40:22;102570.44;;;2.84;65.11
8699;BME280;4386;51.236;6.742;2023-02-28T00:41:25;102565.16;;;2.87;65.25
8699;BME280;4386;51.236;6.742;2023-02-28T00:42:27;102565.97;;;2.89;65.31
8699;BME280;4386;51.236;6.742;2023-02-28T00:43:30;102561.59;;;2.89;65.52
8699;BME280;4386;51.236;6.742;2023-02-28T00:44:32;102565.09;;;2.90;65.19
8699;BME280;4386;51.236;6.742;2023-02-28T00:45:34;102565.09;;;2.90;65.44
8699;BME280;4386;51.236;6.742;2023-02-28T00:46:36;102561.59;;;2.89;65.62
8699;BME280;4386;51.236;6.742;2023-02-28T00:47:40;102560.69;;;2.92;65.67
8699;BME280;4386;51.236;6.742;2023-02-28T00:48:42;102552.81;;;2.92;65.81
8699;BME280;4386;51.236;6.742;2023-02-28T00:49:44;102559.81;;;2.93;65.33
8699;BME280;4386;51.236;6.742;2023-02-28T00:50:48;102552.78;;;2.95;65.35
8699;BME280;4386;51.236;6.742;2023-02-28T00:51:51;102558.88;;;2.95;65.56
8699;BME280;4386;51.236;6.742;2023-02-28T00:52:53;102558.00;;;2.96;65.64
8699;BME280;4386;51.236;6.742;2023-02-28T00:53:55;102554.50;;;2.97;65.53
8699;BME280;4386;51.236;6.742;2023-02-28T00:54:57;102561.50;;;2.97;65.46
8699;BME280;4386;51.236;6.742;2023-02-28T00:56:00;102563.19;;;2.98;65.61
8699;BME280;4386;51.236;6.742;2023-02-28T00:57:01;102553.59;;;2.98;65.65
8699;BME280;4386;51.236;6.742;2023-02-28T00:58:04;102561.50;;;2.97;65.42
8699;BME280;4386;51.236;6.742;2023-02-28T00:59:06;102562.34;;;2.97;65.48
8699;BME280;4386;51.236;6.742;2023-02-28T01:00:09;102560.56;;;2.98;65.60
8699;BME280;4386;51.236;6.742;2023-02-28T01:01:16;102556.25;;;2.97;65.74
8699;BME280;4386;51.236;6.742;2023-02-28T01:02:19;102563.19;;;2.98;65.43
8699;BME280;4386;51.236;6.742;2023-02-28T01:03:22;102562.34;;;2.97;65.75
8699;BME280;4386;51.236;6.742;2023-02-28T01:04:25;102560.63;;;2.96;65.81
8699;BME280;4386;51.236;6.742;2023-02-28T01:05:27;102561.50;;;2.97;65.41
8699;BME280;4386;51.236;6.742;2023-02-28T01:06:29;102562.34;;;2.97;65.56
8699;BME280;4386;51.236;6.742;2023-02-28T01:07:31;102565.00;;;2.96;65.53
8699;BME280;4386;51.236;6.742;2023-02-28T01:08:33;102570.22;;;2.96;65.53
8699;BME280;4386;51.236;6.742;2023-02-28T01:09:35;102561.53;;;2.94;65.84
8699;BME280;4386;51.236;6.742;2023-02-28T01:10:37;102567.66;;;2.93;65.35
8699;BME280;4386;51.236;6.742;2023-02-28T01:11:39;102566.84;;;2.91;65.97
8699;BME280;4386;51.236;6.742;2023-02-28T01:12:45;102561.59;;;2.89;65.76
8699;BME280;4386;51.236;6.742;2023-02-28T01:13:47;102565.16;;;2.87;65.71
8699;BME280;4386;51.236;6.742;2023-02-28T01:14:49;102568.66;;;2.86;65.42
8699;BME280;4386;51.236;6.742;2023-02-28T01:15:52;102571.31;;;2.83;65.98
8699;BME280;4386;51.236;6.742;2023-02-28T01:16:55;102570.50;;;2.81;66.00
8699;BME280;4386;51.236;6.742;2023-02-28T01:17:57;102571.38;;;2.78;65.69
8699;BME280;4386;51.236;6.742;2023-02-28T01:19:01;102574.03;;;2.77;65.91
8699;BME280;4386;51.236;6.742;2023-02-28T01:20:03;102566.19;;;2.75;66.13
8699;BME280;4386;51.236;6.742;2023-02-28T01:21:07;102573.22;;;2.73;66.06
8699;BME280;4386;51.236;6.742;2023-02-28T01:22:09;102572.34;;;2.73;65.98
8699;BME280;4386;51.236;6.742;2023-02-28T01:23:12;102566.28;;;2.69;65.82
8699;BME280;4386;51.236;6.742;2023-02-28T01:24:13;102563.72;;;2.68;65.98
8699;BME280;4386;51.236;6.742;2023-02-28T01:25:16;102566.34;;;2.66;65.98
8699;BME280;4386;51.236;6.742;2023-02-28T01:26:20;102577.72;;;2.63;66.17
8699;BME280;4386;51.236;6.742;2023-02-28T01:27:23;102569.06;;;2.61;66.21
8699;BME280;4386;51.236;6.742;2023-02-28T01:28:24;102577.78;;;2.60;66.66
8699;BME280;4386;51.236;6.742;2023-02-28T01:29:27;102575.19;;;2.59;66.20
8699;BME280;4386;51.236;6.742;2023-02-28T01:30:29;102569.09;;;2.58;65.97
8699;BME280;4386;51.236;6.742;2023-02-28T01:31:32;102567.38;;;2.57;66.69
8699;BME280;4386;51.236;6.742;2023-02-28T01:32:35;102566.50;;;2.57;66.45
8699;BME280;4386;51.236;6.742;2023-02-28T01:33:38;102565.63;;;2.56;66.81
8699;BME280;4386;51.236;6.742;2023-02-28T01:34:41;102563.06;;;2.55;66.51
8699;BME280;4386;51.236;6.742;2023-02-28T01:35:44;102572.66;;;2.54;66.39
8699;BME280;4386;51.236;6.742;2023-02-28T01:36:45;102563.94;;;2.52;66.58
8699;BME280;4386;51.236;6.742;2023-02-28T01:37:48;102565.69;;;2.53;66.95
8699;BME280;4386;51.236;6.742;2023-02-28T01:38:50;102563.09;;;2.52;66.69
8699;BME280;4386;51.236;6.742;2023-02-28T01:39:52;102568.34;;;2.52;66.36
8699;BME280;4386;51.236;6.742;2023-02-28T01:40:54;102564.84;;;2.51;66.55
8699;BME280;4386;51.236;6.742;2023-02-28T01:41:57;102570.09;;;2.50;66.68
8699;BME280;4386;51.236;6.742;2023-02-28T01:42:58;102570.97;;;2.50;66.86
8699;BME280;4386;51.236;6.742;2023-02-28T01:44:04;102568.34;;;2.49;66.46
8699;BME280;4386;51.236;6.742;2023-02-28T01:45:19;102562.28;;;2.47;66.65
8699;BME280;4386;51.236;6.742;2023-02-28T01:46:24;102569.28;;;2.46;66.52
8699;BME280;4386;51.236;6.742;2023-02-28T01:47:28;102565.81;;;2.44;66.53
8699;BME280;4386;51.236;6.742;2023-02-28T01:48:34;102568.44;;;2.43;66.60
8699;BME280;4386;51.236;6.742;2023-02-28T01:49:38;102564.97;;;2.42;66.94
8699;BME280;4386;51.236;6.742;2023-02-28T01:50:43;102565.00;;;2.41;66.83
8699;BME280;4386;51.236;6.742;2023-02-28T01:51:49;102559.78;;;2.41;66.70
8699;BME280;4386;51.236;6.742;2023-02-28T01:52:55;102564.13;;;2.40;67.46
8699;BME280;4386;51.236;6.742;2023-02-28T01:54:01;102559.78;;;2.41;66.82
8699;BME280;4386;51.236;6.742;2023-02-28T01:55:06;102563.31;;;2.38;67.45
8699;BME280;4386;51.236;6.742;2023-02-28T01:56:12;102561.56;;;2.37;67.09
8699;BME280;4386;51.236;6.742;2023-02-28T01:57:18;102564.19;;;2.37;67.67
8699;BME280;4386;51.236;6.742;2023-02-28T01:58:22;102563.31;;;2.37;67.36
8699;BME280;4386;51.236;6.742;2023-02-28T01:59:27;102559.00;;;2.34;67.27
8699;BME280;4386;51.236;6.742;2023-02-28T02:00:32;102562.47;;;2.33;67.35
8699;BME280;4386;51.236;6.742;2023-02-28T02:01:34;102558.16;;;2.32;67.17
8699;BME280;4386;51.236;6.742;2023-02-28T02:02:37;102569.50;;;2.31;67.59
8699;BME280;4386;51.236;6.742;2023-02-28T02:03:39;102559.03;;;2.31;67.78
8699;BME280;4386;51.236;6.742;2023-02-28T02:04:46;102559.91;;;2.30;67.21
8699;BME280;4386;51.236;6.742;2023-02-28T02:05:52;102559.97;;;2.27;67.37
8699;BME280;4386;51.236;6.742;2023-02-28T02:06:55;102562.56;;;2.27;67.83
8699;BME280;4386;51.236;6.742;2023-02-28T02:07:59;102558.22;;;2.26;67.70
8699;BME280;4386;51.236;6.742;2023-02-28T02:09:03;102554.78;;;2.26;67.76
8699;BME280;4386;51.236;6.742;2023-02-28T02:10:12;102559.13;;;2.25;67.38
8699;BME280;4386;51.236;6.742;2023-02-28T02:11:17;102554.78;;;2.24;67.93
8699;BME280;4386;51.236;6.742;2023-02-28T02:12:27;102561.75;;;2.24;67.94
8699;BME280;4386;51.236;6.742;2023-02-28T02:13:45;102558.28;;;2.23;67.54
8699;BME280;4386;51.236;6.742;2023-02-28T02:15:01;102557.44;;;2.21;67.84
8699;BME280;4386;51.236;6.742;2023-02-28T02:16:17;102555.69;;;2.20;67.72
8699;BME280;4386;51.236;6.742;2023-02-28T02:17:28;102554.00;;;2.18;67.99
8699;BME280;4386;51.236;6.742;2023-02-28T02:18:37;102556.63;;;2.16;67.73
8699;BME280;4386;51.236;6.742;2023-02-28T02:20:15;102562.75;;;2.15;68.13
8699;BME280;4386;51.236;6.742;2023-02-28T02:21:44;102556.69;;;2.12;68.18
8699;BME280;4386;51.236;6.742;2023-02-28T02:23:09;102555.88;;;2.08;68.38
8699;BME280;4386;51.236;6.742;2023-02-28T02:24:37;102553.31;;;2.05;67.86
8699;BME280;4386;51.236;6.742;2023-02-28T02:25:53;102548.94;;;2.04;68.52
8699;BME280;4386;51.236;6.742;2023-02-28T02:27:08;102546.38;;;2.02;68.50
8699;BME280;4386;51.236;6.742;2023-02-28T02:28:53;102546.38;;;2.02;68.44
8699;BME280;4386;51.236;6.742;2023-02-28T02:30:40;102555.09;;;2.01;68.05
8699;BME280;4386;51.236;6.742;2023-02-28T02:32:09;102546.41;;;1.99;68.00
8699;BME280;4386;51.236;6.742;2023-02-28T02:33:27;102548.16;;;1.97;68.18
8699;BME280;4386;51.236;6.742;2023-02-28T02:34:53;102550.81;;;1.96;68.50
8699;BME280;4386;51.236;6.742;2023-02-28T02:36:01;102550.81;;;1.96;68.15
8699;BME280;4386;51.236;6.742;2023-02-28T02:37:13;102552.56;;;1.94;68.87
8699;BME280;4386;51.236;6.742;2023-02-28T02:38:19;102550.88;;;1.93;68.70
8699;BME280;4386;51.236;6.742;2023-02-28T02:39:30;102548.25;;;1.91;69.00
8699;BME280;4386;51.236;6.742;2023-02-28T02:40:38;102548.25;;;1.91;68.54
8699;BME280;4386;51.236;6.742;2023-02-28T02:41:47;102543.91;;;1.90;68.76
8699;BME280;4386;51.236;6.742;2023-02-28T02:42:54;102536.06;;;1.90;68.59
8699;BME280;4386;51.236;6.742;2023-02-28T02:44:02;102541.28;;;1.90;69.15
8699;BME280;4386;51.236;6.742;2023-02-28T02:45:10;102540.41;;;1.90;69.28
8699;BME280;4386;51.236;6.742;2023-02-28T02:46:19;102536.06;;;1.90;68.77
8699;BME280;4386;51.236;6.742;2023-02-28T02:47:24;102544.81;;;1.89;69.35
8699;BME280;4386;51.236;6.742;2023-02-28T02:48:31;102532.63;;;1.88;69.17
8699;BME280;4386;51.236;6.742;2023-02-28T02:49:38;102536.09;;;1.87;69.34
8699;BME280;4386;51.236;6.742;2023-02-28T02:50:46;102523.91;;;1.88;68.70
8699;BME280;4386;51.236;6.742;2023-02-28T02:51:52;102536.97;;;1.88;69.35
8699;BME280;4386;51.236;6.742;2023-02-28T02:52:58;102535.22;;;1.87;68.85
8699;BME280;4386;51.236;6.742;2023-02-28T02:54:05;102530.00;;;1.87;68.81
8699;BME280;4386;51.236;6.742;2023-02-28T02:55:10;102530.00;;;1.87;69.46
8699;BME280;4386;51.236;6.742;2023-02-28T02:56:15;102536.13;;;1.86;69.03
8699;BME280;4386;51.236;6.742;2023-02-28T02:57:22;102530.03;;;1.84;69.19
8699;BME280;4386;51.236;6.742;2023-02-28T02:58:28;102535.28;;;1.84;69.48
8699;BME280;4386;51.236;6.742;2023-02-28T02:59:32;102533.56;;;1.83;69.24
8699;BME280;4386;51.236;6.742;2023-02-28T03:00:39;102533.56;;;1.83;68.98
8699;BME280;4386;51.236;6.742;2023-02-28T03:01:42;102531.81;;;1.82;69.41
8699;BME280;4386;51.236;6.742;2023-02-28T03:02:47;102532.69;;;1.81;69.05
8699;BME280;4386;51.236;6.742;2023-02-28T03:03:50;102527.50;;;1.79;69.12
8699;BME280;4386;51.236;6.742;2023-02-28T03:04:56;102532.75;;;1.79;69.67
8699;BME280;4386;51.236;6.742;2023-02-28T03:06:04;102532.75;;;1.78;69.17
8699;BME280;4386;51.236;6.742;2023-02-28T03:07:07;102533.63;;;1.77;69.25
8699;BME280;4386;51.236;6.742;2023-02-28T03:08:09;102529.31;;;1.74;69.39
8699;BME280;4386;51.236;6.742;2023-02-28T03:09:12;102531.94;;;1.73;69.23
8699;BME280;4386;51.236;6.742;2023-02-28T03:10:35;102540.66;;;1.72;69.97
8699;BME280;4386;51.236;6.742;2023-02-28T03:11:43;102538.06;;;1.72;70.05
8699;BME280;4386;51.236;6.742;2023-02-28T03:12:49;102538.09;;;1.70;69.96
8699;BME280;4386;51.236;6.742;2023-02-28T03:14:10;102533.75;;;1.68;69.85
8699;BME280;4386;51.236;6.742;2023-02-28T03:15:19;102538.09;;;1.67;69.74
8699;BME280;4386;51.236;6.742;2023-02-28T03:16:35;102535.53;;;1.66;69.79
8699;BME280;4386;51.236;6.742;2023-02-28T03:17:55;102539.00;;;1.65;69.79
8699;BME280;4386;51.236;6.742;2023-02-28T03:20:40;102539.91;;;1.64;70.14
8699;BME280;4386;51.236;6.742;2023-02-28T03:21:46;102535.56;;;1.63;70.37
8699;BME280;4386;51.236;6.742;2023-02-28T03:23:02;102532.06;;;1.61;70.04
8699;BME280;4386;51.236;6.742;2023-02-28T03:24:08;102535.59;;;1.60;70.13
8699;BME280;4386;51.236;6.742;2023-02-28T03:25:16;102534.72;;;1.59;70.59
8699;BME280;4386;51.236;6.742;2023-02-28T03:26:23;102532.13;;;1.57;70.10
8699;BME280;4386;51.236;6.742;2023-02-28T03:27:27;102536.50;;;1.57;70.49
8699;BME280;4386;51.236;6.742;2023-02-28T03:28:33;102530.41;;;1.56;70.73
8699;BME280;4386;51.236;6.742;2023-02-28T03:29:42;102532.16;;;1.54;70.03
8699;BME280;4386;51.236;6.742;2023-02-28T03:30:48;102526.94;;;1.54;70.19
8699;BME280;4386;51.236;6.742;2023-02-28T03:31:58;102527.84;;;1.53;70.66
8699;BME280;4386;51.236;6.742;2023-02-28T03:33:05;102520.03;;;1.50;70.73
8699;BME280;4386;51.236;6.742;2023-02-28T03:34:10;102520.03;;;1.50;70.75
8699;BME280;4386;51.236;6.742;2023-02-28T03:35:16;102520.03;;;1.49;70.29
8699;BME280;4386;51.236;6.742;2023-02-28T03:36:26;102517.44;;;1.50;70.53
8699;BME280;4386;51.236;6.742;2023-02-28T03:37:32;102518.31;;;1.49;70.79
8699;BME280;4386;51.236;6.742;2023-02-28T03:38:40;102520.91;;;1.49;70.37
8699;BME280;4386;51.236;6.742;2023-02-28T03:39:47;102526.13;;;1.49;70.42
8699;BME280;4386;51.236;6.742;2023-02-28T03:40:53;102518.34;;;1.46;70.50
8699;BME280;4386;51.236;6.742;2023-02-28T03:42:00;102539.22;;;1.46;70.48
8699;BME280;4386;51.236;6.742;2023-02-28T03:43:10;102526.19;;;1.45;71.21
8699;BME280;4386;51.236;6.742;2023-02-28T03:44:18;102525.31;;;1.44;70.57
8699;BME280;4386;51.236;6.742;2023-02-28T03:45:22;102529.69;;;1.42;71.07
8699;BME280;4386;51.236;6.742;2023-02-28T03:46:30;102527.97;;;1.41;70.81
8699;BME280;4386;51.236;6.742;2023-02-28T03:47:37;102529.69;;;1.41;71.30
8699;BME280;4386;51.236;6.742;2023-02-28T03:48:44;102528.00;;;1.40;70.62
8699;BME280;4386;51.236;6.742;2023-02-28T03:49:49;102530.59;;;1.38;70.86
8699;BME280;4386;51.236;6.742;2023-02-28T03:55:41;102535.84;;;1.35;71.01
8699;BME280;4386;51.236;6.742;2023-02-28T03:56:48;102531.53;;;1.33;70.76
8699;BME280;4386;51.236;6.742;2023-02-28T03:57:58;102530.69;;;1.32;71.06
8699;BME280;4386;51.236;6.742;2023-02-28T03:59:07;102531.53;;;1.31;70.78
8699;BME280;4386;51.236;6.742;2023-02-28T04:00:14;102528.94;;;1.31;70.72
8699;BME280;4386;51.236;6.742;2023-02-28T04:01:23;102532.44;;;1.30;71.08
8699;BME280;4386;51.236;6.742;2023-02-28T04:02:27;102536.78;;;1.31;70.96
8699;BME280;4386;51.236;6.742;2023-02-28T04:03:30;102537.66;;;1.30;71.27
8699;BME280;4386;51.236;6.742;2023-02-28T04:04:32;102532.44;;;1.30;70.82
8699;BME280;4386;51.236;6.742;2023-02-28T04:05:45;102537.66;;;1.30;70.75
8699;BME280;4386;51.236;6.742;2023-02-28T04:06:49;102540.28;;;1.30;70.67
8699;BME280;4386;51.236;6.742;2023-02-28T04:07:53;102542.00;;;1.31;70.61
8699;BME280;4386;51.236;6.742;2023-02-28T04:08:55;102544.59;;;1.31;70.68
8699;BME280;4386;51.236;6.742;2023-02-28T04:09:58;102539.38;;;1.31;71.11
8699;BME280;4386;51.236;6.742;2023-02-28T04:11:04;102541.13;;;1.32;71.04
8699;BME280;4386;51.236;6.742;2023-02-28T04:12:09;102537.63;;;1.32;70.71
8699;BME280;4386;51.236;6.742;2023-02-28T04:13:10;102543.72;;;1.32;71.24
8699;BME280;4386;51.236;6.742;2023-02-28T04:14:13;102537.66;;;1.30;71.57
8699;BME280;4386;51.236;6.742;2023-02-28T04:15:15;102543.75;;;1.31;70.93
8699;BME280;4386;51.236;6.742;2023-02-28T04:16:17;102543.75;;;1.31;71.04
8699;BME280;4386;51.236;6.742;2023-02-28T04:17:35;102536.78;;;1.31;71.35
8699;BME280;4386;51.236;6.742;2023-02-28T04:18:37;102547.22;;;1.31;71.01
8699;BME280;4386;51.236;6.742;2023-02-28T04:19:39;102547.22;;;1.31;70.51
8699;BME280;4386;51.236;6.742;2023-02-28T04:20:41;102548.13;;;1.30;71.48
8699;BME280;4386;51.236;6.742;2023-02-28T04:21:45;102546.38;;;1.29;70.69
8699;BME280;4386;51.236;6.742;2023-02-28T04:22:47;102546.38;;;1.29;71.63
8699;BME280;4386;51.236;6.742;2023-02-28T04:23:49;102549.00;;;1.29;71.29
8699;BME280;4386;51.236;6.742;2023-02-28T04:24:52;102542.03;;;1.28;71.40
8699;BME280;4386;51.236;6.742;2023-02-28T04:25:54;102544.63;;;1.28;70.84
8699;BME280;4386;51.236;6.742;2023-02-28T04:26:58;102544.63;;;1.28;71.21
8699;BME280;4386;51.236;6.742;2023-02-28T04:28:00;102543.75;;;1.28;71.38
8699;BME280;4386;51.236;6.742;2023-02-28T04:29:04;102542.94;;;1.27;71.10
8699;BME280;4386;51.236;6.742;2023-02-28T04:30:07;102546.41;;;1.26;71.55
8699;BME280;4386;51.236;6.742;2023-02-28T04:31:10;102554.22;;;1.28;71.23
8699;BME280;4386;51.236;6.742;2023-02-28T04:32:12;102549.84;;;1.28;70.98
8699;BME280;4386;51.236;6.742;2023-02-28T04:33:14;102542.06;;;1.27;71.27
8699;BME280;4386;51.236;6.742;2023-02-28T04:34:16;102549.84;;;1.28;71.56
8699;BME280;4386;51.236;6.742;2023-02-28T04:35:20;102547.25;;;1.28;70.91
8699;BME280;4386;51.236;6.742;2023-02-28T04:36:21;102549.84;;;1.28;70.97
8699;BME280;4386;51.236;6.742;2023-02-28T04:37:26;102549.84;;;1.28;71.42
8699;BME280;4386;51.236;6.742;2023-02-28T04:38:32;102549.84;;;1.28;71.05
8699;BME280;4386;51.236;6.742;2023-02-28T04:39:36;102554.22;;;1.28;71.46
8699;BME280;4386;51.236;6.742;2023-02-28T04:40:38;102552.47;;;1.28;70.76
8699;BME280;4386;51.236;6.742;2023-02-28T04:41:40;102548.16;;;1.27;71.25
8699;BME280;4386;51.236;6.742;2023-02-28T04:42:43;102555.13;;;1.27;70.75
8699;BME280;4386;51.236;6.742;2023-02-28T04:43:46;102547.28;;;1.27;71.34
8699;BME280;4386;51.236;6.742;2023-02-28T04:44:47;102557.72;;;1.27;71.23
8699;BME280;4386;51.236;6.742;2023-02-28T04:45:50;102556.84;;;1.26;70.89
8699;BME280;4386;51.236;6.742;2023-02-28T04:46:51;102547.28;;;1.25;71.59
8699;BME280;4386;51.236;6.742;2023-02-28T04:47:54;102552.50;;;1.25;71.67
8699;BME280;4386;51.236;6.742;2023-02-28T04:48:56;102549.91;;;1.25;70.84
8699;BME280;4386;51.236;6.742;2023-02-28T04:49:59;102552.50;;;1.25;71.24
8699;BME280;4386;51.236;6.742;2023-02-28T04:51:01;102549.91;;;1.25;70.98
8699;BME280;4386;51.236;6.742;2023-02-28T04:52:04;102555.13;;;1.25;70.93
8699;BME280;4386;51.236;6.742;2023-02-28T04:53:06;102551.63;;;1.25;71.53
8699;BME280;4386;51.236;6.742;2023-02-28T04:54:08;102546.44;;;1.23;71.13
8699;BME280;4386;51.236;6.742;2023-02-28T04:55:10;102550.78;;;1.24;71.56
8699;BME280;4386;51.236;6.742;2023-02-28T04:56:14;102550.78;;;1.24;70.94
8699;BME280;4386;51.236;6.742;2023-02-28T04:57:16;102553.41;;;1.24;70.80
8699;BME280;4386;51.236;6.742;2023-02-28T04:58:20;102548.19;;;1.24;71.14
8699;BME280;4386;51.236;6.742;2023-02-28T04:59:24;102556.88;;;1.23;71.12
8699;BME280;4386;51.236;6.742;2023-02-28T05:00:26;102552.53;;;1.24;71.17
8699;BME280;4386;51.236;6.742;2023-02-28T05:01:29;102556.88;;;1.23;71.21
8699;BME280;4386;51.236;6.742;2023-02-28T05:02:34;102562.09;;;1.23;70.88
8699;BME280;4386;51.236;6.742;2023-02-28T05:03:35;102550.78;;;1.23;70.78
8699;BME280;4386;51.236;6.742;2023-02-28T05:04:38;102559.50;;;1.23;70.94
8699;BME280;4386;51.236;6.742;2023-02-28T05:05:41;102556.88;;;1.23;71.32
8699;BME280;4386;51.236;6.742;2023-02-28T05:06:43;102549.94;;;1.22;70.52
8699;BME280;4386;51.236;6.742;2023-02-28T05:07:45;102554.28;;;1.22;70.64
8699;BME280;4386;51.236;6.742;2023-02-28T05:08:47;102557.75;;;1.24;70.88
8699;BME280;4386;51.236;6.742;2023-02-28T05:09:49;102562.97;;;1.24;70.51
8699;BME280;4386;51.236;6.742;2023-02-28T05:10:51;102560.38;;;1.24;71.34
8699;BME280;4386;51.236;6.742;2023-02-28T05:11:54;102560.38;;;1.24;71.04
8699;BME280;4386;51.236;6.742;2023-02-28T05:12:56;102556.88;;;1.23;70.72
8699;BME280;4386;51.236;6.742;2023-02-28T05:14:00;102561.25;;;1.24;70.54
8699;BME280;4386;51.236;6.742;2023-02-28T05:15:02;102559.50;;;1.23;71.29
8699;BME280;4386;51.236;6.742;2023-02-28T05:16:06;102561.25;;;1.23;71.09
8699;BME280;4386;51.236;6.742;2023-02-28T05:17:08;102562.09;;;1.23;70.68
8699;BME280;4386;51.236;6.742;2023-02-28T05:18:11;102559.50;;;1.22;71.06
8699;BME280;4386;51.236;6.742;2023-02-28T05:19:13;102561.25;;;1.21;70.59
8699;BME280;4386;51.236;6.742;2023-02-28T05:20:16;102559.50;;;1.22;70.67
8699;BME280;4386;51.236;6.742;2023-02-28T05:21:24;102562.16;;;1.20;70.72
8699;BME280;4386;51.236;6.742;2023-02-28T05:22:28;102563.00;;;1.21;70.81
8699;BME280;4386;51.236;6.742;2023-02-28T05:23:31;102568.22;;;1.19;70.87
8699;BME280;4386;51.236;6.742;2023-02-28T05:24:32;102565.66;;;1.18;70.84
8699;BME280;4386;51.236;6.742;2023-02-28T05:25:35;102561.31;;;1.17;70.37
8699;BME280;4386;51.236;6.742;2023-02-28T05:26:38;102563.03;;;1.16;70.78
8699;BME280;4386;51.236;6.742;2023-02-28T05:27:41;102563.91;;;1.17;70.60
8699;BME280;4386;51.236;6.742;2023-02-28T05:28:43;102567.41;;;1.17;70.64
8699;BME280;4386;51.236;6.742;2023-02-28T05:29:46;102558.69;;;1.15;70.74
8699;BME280;4386;51.236;6.742;2023-02-28T05:30:49;102570.91;;;1.13;71.28
8699;BME280;4386;51.236;6.742;2023-02-28T05:31:51;102567.44;;;1.14;70.58
8699;BME280;4386;51.236;6.742;2023-02-28T05:32:54;102566.56;;;1.14;70.79
8699;BME280;4386;51.236;6.742;2023-02-28T05:33:56;102565.69;;;1.13;70.61
8699;BME280;4386;51.236;6.742;2023-02-28T05:34:58;102570.91;;;1.13;70.57
8699;BME280;4386;51.236;6.742;2023-02-28T05:36:00;102566.56;;;1.12;70.41
8699;BME280;4386;51.236;6.742;2023-02-28T05:37:03;102567.47;;;1.11;71.17
8699;BME280;4386;51.236;6.742;2023-02-28T05:38:05;102563.09;;;1.10;70.72
8699;BME280;4386;51.236;6.742;2023-02-28T05:39:07;102572.69;;;1.11;70.53
8699;BME280;4386;51.236;6.742;2023-02-28T05:40:13;102570.06;;;1.11;71.13
8699;BME280;4386;51.236;6.742;2023-02-28T05:41:17;102568.34;;;1.10;70.46
8699;BME280;4386;51.236;6.742;2023-02-28T05:42:21;102568.34;;;1.10;70.71
8699;BME280;4386;51.236;6.742;2023-02-28T05:43:24;102569.19;;;1.11;70.86
8699;BME280;4386;51.236;6.742;2023-02-28T05:44:26;102564.84;;;1.10;70.71
8699;BME280;4386;51.236;6.742;2023-02-28T05:45:30;102568.34;;;1.09;71.23
8699;BME280;4386;51.236;6.742;2023-02-28T05:46:32;102572.69;;;1.08;70.73
8699;BME280;4386;51.236;6.742;2023-02-28T05:47:35;102574.44;;;1.06;71.22
8699;BME280;4386;51.236;6.742;2023-02-28T05:48:39;102571.00;;;1.04;70.90
8699;BME280;4386;51.236;6.742;2023-02-28T05:49:42;102574.47;;;1.03;70.43
8699;BME280;4386;51.236;6.742;2023-02-28T05:50:44;102572.75;;;1.02;71.03
8699;BME280;4386;51.236;6.742;2023-02-28T05:51:47;102574.50;;;1.00;70.70
8699;BME280;4386;51.236;6.742;2023-02-28T05:52:50;102576.25;;;1.01;70.60
8699;BME280;4386;51.236;6.742;2023-02-28T05:53:51;102574.50;;;1.00;70.96
8699;BME280;4386;51.236;6.742;2023-02-28T05:54:54;102571.91;;;0.98;71.11
8699;BME280;4386;51.236;6.742;2023-02-28T05:55:55;102581.50;;;0.98;71.27
8699;BME280;4386;51.236;6.742;2023-02-28T05:56:58;102581.50;;;0.98;71.24
8699;BME280;4386;51.236;6.742;2023-02-28T05:58:00;102573.66;;;0.96;70.75
8699;BME280;4386;51.236;6.742;2023-02-28T05:59:08;102580.63;;;0.97;70.86
8699;BME280;4386;51.236;6.742;2023-02-28T06:00:11;102592.81;;;0.95;71.04
8699;BME280;4386;51.236;6.742;2023-02-28T06:01:23;102587.59;;;0.95;70.87